createdAt,value
2022-11-06T00:02:43.655Z,8.5
2022-11-06T00:12:45.774Z,8.5
2022-11-06T00:22:47.582Z,8.5
2022-11-06T00:32:49.847Z,8.5
2022-11-06T00:42:51.742Z,8.2
2022-11-06T00:52:53.435Z,8.1
2022-11-06T01:02:55.873Z,7.7
2022-11-06T01:12:58.082Z,7.6
2022-11-06T01:22:59.821Z,7.5
2022-11-06T01:43:03.995Z,7.3
2022-11-06T01:53:06.563Z,7.2
2022-11-06T02:03:08.416Z,7.1
2022-11-06T02:13:11.015Z,7.1
2022-11-06T02:23:13.371Z,7.1
2022-11-06T02:33:15.383Z,7.2
2022-11-06T02:43:17.073Z,7.3
2022-11-06T02:53:19.479Z,7.4
2022-11-06T03:03:21.424Z,7.3
2022-11-06T03:13:23.506Z,7.3
2022-11-06T03:23:25.120Z,7.3
2022-11-06T03:33:26.858Z,7.4
2022-11-06T03:43:28.787Z,7.5
2022-11-06T03:53:31.192Z,7.4
2022-11-06T04:03:33.257Z,7.4
2022-11-06T04:13:34.999Z,7.2
2022-11-06T04:33:39.261Z,7.3
2022-11-06T04:43:41.238Z,7.3
2022-11-06T04:53:43.610Z,7.2
2022-11-06T05:03:45.745Z,7.2
2022-11-06T05:13:47.514Z,7.1
2022-11-06T05:23:49.611Z,7.3
2022-11-06T05:33:52.063Z,7.4
2022-11-06T05:43:54.438Z,7.4
2022-11-06T05:53:56.351Z,7.4
2022-11-06T06:03:58.314Z,7.3
2022-11-06T06:14:00.296Z,7.2
2022-11-06T06:24:02.056Z,7.2
2022-11-06T06:34:03.992Z,7.3
2022-11-06T06:44:06.583Z,7.3
2022-11-06T06:54:08.426Z,7.3
2022-11-06T07:04:10.068Z,7.4
2022-11-06T07:14:12.626Z,8.1
2022-11-06T07:24:14.871Z,8.3
2022-11-06T07:34:17.122Z,8.4
2022-11-06T07:44:18.849Z,8.6
2022-11-06T07:54:20.638Z,9.1
2022-11-06T08:04:22.355Z,9.3
2022-11-06T08:14:24.294Z,9.4
2022-11-06T08:34:28.443Z,10.2
2022-11-06T08:44:30.864Z,10.2
2022-11-06T08:54:33.074Z,10.5
2022-11-06T09:04:40.194Z,10.6
2022-11-06T09:14:37.017Z,10.7
2022-11-06T09:25:01.695Z,11.5
2022-11-06T09:54:45.085Z,10.7
2022-11-06T10:44:55.570Z,11
2022-11-06T11:55:11.384Z,11.9
2022-11-06T12:05:13.770Z,11.7
2022-11-06T12:35:20.559Z,11.6
2022-11-06T12:45:23.204Z,11.9
2022-11-06T12:55:25.604Z,11.4
2022-11-06T13:05:27.944Z,11.5
2022-11-06T13:15:37.072Z,11.4
2022-11-06T13:25:39.616Z,11.3
2022-11-06T13:45:43.213Z,11.3
2022-11-06T13:55:45.124Z,11.3
2022-11-06T14:05:47.690Z,11.2
2022-11-06T14:15:50.322Z,11.1
2022-11-06T14:25:52.344Z,11
2022-11-06T14:45:56.525Z,11
2022-11-06T15:06:00.755Z,11
2022-11-06T15:16:03.388Z,11.1
2022-11-06T15:26:05.379Z,11.2
2022-11-06T15:36:07.704Z,11.1
2022-11-06T15:46:09.931Z,10.9
2022-11-06T15:56:12.533Z,10.9
2022-11-06T16:06:15.155Z,10.9
2022-11-06T16:16:17.284Z,10.5
2022-11-06T16:26:19.511Z,10
2022-11-06T16:36:21.333Z,9.5
2022-11-06T16:46:23.400Z,9.2
2022-11-06T16:56:25.114Z,8.9
2022-11-06T17:06:26.820Z,8.9
2022-11-06T17:16:28.582Z,8.9
2022-11-06T17:36:33.365Z,8.8
2022-11-06T17:56:38.047Z,8.9
2022-11-06T18:06:39.333Z,8.9
2022-11-06T18:26:44.106Z,8.9
2022-11-06T18:36:46.628Z,8.9
2022-11-06T18:46:48.891Z,9
2022-11-06T18:56:50.565Z,9.1
2022-11-06T19:06:52.307Z,9.2
2022-11-06T19:16:54.636Z,9.2
2022-11-06T19:26:56.319Z,9.3
2022-11-06T19:36:58.588Z,9.4
2022-11-06T19:57:26.698Z,9.7
2022-11-06T20:07:05.240Z,9.6
2022-11-06T20:17:06.936Z,9.7
2022-11-06T20:27:11.284Z,9.9
2022-11-06T20:37:11.076Z,10
2022-11-06T20:47:13.558Z,9.9
2022-11-06T20:57:16.139Z,9.9
2022-11-06T21:17:20.503Z,9.8
2022-11-06T21:27:22.363Z,9.9
2022-11-06T21:37:24.265Z,10
2022-11-06T21:47:25.944Z,9.9
2022-11-06T21:57:28.046Z,9.9
2022-11-06T22:07:30.478Z,10
2022-11-06T22:17:32.461Z,10.1
2022-11-06T22:27:39.719Z,10.2
2022-11-06T22:37:36.642Z,10.2
2022-11-06T22:47:39.151Z,10.2
2022-11-06T22:57:41.176Z,10.2
2022-11-06T23:07:43.370Z,10.1
2022-11-06T23:17:45.865Z,10
2022-11-06T23:27:49.890Z,9.9
2022-11-06T23:37:50.791Z,10.1
2022-11-06T23:47:53.350Z,10.3
2022-11-06T23:57:55.718Z,10.4
